Question Info

This question is public and is used in 1 group and 1 test or worksheet.

Type: Multiple-Choice
Category: Atmosphere
Level: Continuing Education
Author: chrisbanks130@gmail.com
Last Modified: 3 months ago

View all questions by chrisbanks130@gmail.com.

Atmosphere Question

View this question.

Add this question to a group or test by clicking the appropriate button below.

Continuing Education Atmosphere

Based on this TAF, do we need an alternate airport? Our ETA is 1100Z.

292328Z 3000/3024 23012G20KT P6SM SCT050 BKN150
TEMPO 3003/3006 -SHRA BKN035
FM300600 28015G25KT P6SM SCT050 OVC100
FM300900 29013G23KT P6SM SCT250
FM301400 31017G28KT P6SM FEW050
  1. Yes
  2. No
  3. We never need an alternate airport
You need to have at least 5 reputation to vote a question down. Learn How To Earn Badges.